createdAt,value
2023-08-29T00:00:53.931Z,68.73
2023-08-29T00:03:20.566Z,68.91
2023-08-29T00:05:47.295Z,68.70
2023-08-29T00:08:13.958Z,69.12
2023-08-29T00:10:40.606Z,69.35
2023-08-29T00:13:07.170Z,69.13
2023-08-29T00:15:33.889Z,69.37
2023-08-29T00:18:01.459Z,68.58
2023-08-29T00:20:28.155Z,68.98
2023-08-29T00:22:54.792Z,68.97
2023-08-29T00:25:21.405Z,68.73
2023-08-29T00:27:47.999Z,68.80
2023-08-29T00:30:14.711Z,69.13
2023-08-29T00:32:43.100Z,69.76
2023-08-29T00:35:09.936Z,69.20
2023-08-29T00:37:36.568Z,69.88
2023-08-29T00:40:03.381Z,68.71
2023-08-29T00:42:30.670Z,68.58
2023-08-29T00:44:57.277Z,68.57
2023-08-29T00:47:24.116Z,68.65
2023-08-29T00:49:51.352Z,69.15
2023-08-29T00:52:18.054Z,70.36
2023-08-29T00:54:44.645Z,68.86
2023-08-29T00:57:11.378Z,68.53
2023-08-29T00:59:38.167Z,69.18
2023-08-29T01:02:05.313Z,68.89
2023-08-29T01:04:32.221Z,68.56
2023-08-29T01:06:59.217Z,68.69
2023-08-29T01:09:27.041Z,68.77
2023-08-29T01:12:03.944Z,68.91
2023-08-29T01:14:30.504Z,68.81
2023-08-29T01:17:04.859Z,69.28
2023-08-29T01:19:33.007Z,69.33
2023-08-29T01:22:09.044Z,69.30
2023-08-29T01:24:42.222Z,70.17
2023-08-29T01:27:09.142Z,69.13
2023-08-29T01:29:36.757Z,69.83
2023-08-29T01:32:04.383Z,69.17
2023-08-29T01:34:31.062Z,69.33
2023-08-29T01:36:57.645Z,69.22
2023-08-29T01:39:24.293Z,69.09
2023-08-29T01:41:50.912Z,69.14
2023-08-29T01:44:17.526Z,69.42
2023-08-29T01:46:44.108Z,69.27
2023-08-29T01:49:10.799Z,69.38
2023-08-29T01:51:37.552Z,69.38
2023-08-29T01:54:04.428Z,69.31
2023-08-29T01:56:31.595Z,69.64
2023-08-29T01:59:00.106Z,69.81
2023-08-29T02:01:26.861Z,69.72
2023-08-29T02:03:53.597Z,69.92
2023-08-29T02:06:20.475Z,69.75
2023-08-29T02:08:47.249Z,69.70
2023-08-29T02:11:13.915Z,70.04
2023-08-29T02:13:40.487Z,70.12
2023-08-29T02:16:07.105Z,69.95
2023-08-29T02:18:33.783Z,70.32
2023-08-29T02:21:00.408Z,70.35
2023-08-29T02:23:27.033Z,70.45
2023-08-29T02:26:11.546Z,70.42
2023-08-29T02:28:39.178Z,70.37
2023-08-29T02:31:07.098Z,70.49
2023-08-29T02:33:36.482Z,70.96
2023-08-29T02:36:05.673Z,70.79
2023-08-29T02:38:32.628Z,70.74
2023-08-29T02:40:59.262Z,70.92
2023-08-29T02:43:26.632Z,70.92
2023-08-29T02:45:53.329Z,71.02
2023-08-29T02:48:19.939Z,70.65
2023-08-29T02:50:49.502Z,71.01
2023-08-29T02:53:19.516Z,70.81
2023-08-29T02:55:46.328Z,71.12
2023-08-29T02:58:12.883Z,71.03
2023-08-29T03:00:39.502Z,71.25
2023-08-29T03:03:06.280Z,71.24
2023-08-29T03:05:33.431Z,71.29
2023-08-29T03:08:00.703Z,71.97
2023-08-29T03:10:27.398Z,71.40
2023-08-29T03:12:54.277Z,71.53
2023-08-29T03:15:21.005Z,71.48
2023-08-29T03:17:48.553Z,71.28
2023-08-29T03:20:16.911Z,71.67
2023-08-29T03:22:43.671Z,72.04
2023-08-29T03:25:10.788Z,71.63
2023-08-29T03:27:37.502Z,71.97
2023-08-29T03:30:04.347Z,71.92
2023-08-29T03:32:32.026Z,71.98
2023-08-29T03:34:59.649Z,72.22
2023-08-29T03:37:26.344Z,73.97
2023-08-29T03:39:55.724Z,72.93
2023-08-29T03:42:22.289Z,72.40
2023-08-29T03:44:48.983Z,72.87
2023-08-29T03:47:15.579Z,72.11
2023-08-29T03:49:42.225Z,72.05
2023-08-29T03:52:08.815Z,72.05
2023-08-29T03:54:35.420Z,73.30
2023-08-29T03:57:02.012Z,73.91
2023-08-29T03:59:28.586Z,75.00
2023-08-29T04:01:55.249Z,74.47
2023-08-29T04:04:22.061Z,72.59
2023-08-29T04:06:48.756Z,72.76
2023-08-29T04:09:15.699Z,74.30
2023-08-29T04:11:42.539Z,74.81
2023-08-29T04:14:09.273Z,72.69
2023-08-29T04:16:36.039Z,72.64
2023-08-29T04:19:02.744Z,72.00
2023-08-29T04:21:30.162Z,72.79
2023-08-29T04:23:56.763Z,72.01
2023-08-29T04:26:23.388Z,72.18
2023-08-29T04:28:50.209Z,72.22
2023-08-29T04:31:18.648Z,72.36
2023-08-29T04:33:45.290Z,71.71
2023-08-29T04:36:11.945Z,71.60
2023-08-29T04:38:38.620Z,72.01
2023-08-29T04:41:05.288Z,72.08
2023-08-29T04:43:31.882Z,71.74
2023-08-29T04:45:58.484Z,71.66
2023-08-29T04:48:25.206Z,71.47
2023-08-29T04:50:51.900Z,71.54
2023-08-29T04:53:18.487Z,71.56
2023-08-29T04:55:45.110Z,71.51
2023-08-29T04:58:11.683Z,71.69
2023-08-29T05:00:38.380Z,72.22
2023-08-29T05:03:05.809Z,71.79
2023-08-29T05:05:32.643Z,72.12
2023-08-29T05:07:59.378Z,71.67
2023-08-29T05:10:26.202Z,71.60
2023-08-29T05:12:53.275Z,71.58
2023-08-29T05:15:19.915Z,71.31
2023-08-29T05:17:46.631Z,71.05
2023-08-29T05:20:13.748Z,71.13
2023-08-29T05:22:40.437Z,71.70
2023-08-29T05:25:07.520Z,71.42
2023-08-29T05:27:34.865Z,71.02
2023-08-29T05:30:01.436Z,71.19
2023-08-29T05:32:28.186Z,71.14
2023-08-29T05:34:54.811Z,70.98
2023-08-29T05:37:21.461Z,70.89
2023-08-29T05:39:48.063Z,70.98
2023-08-29T05:42:14.725Z,70.73
2023-08-29T05:44:41.456Z,70.94
2023-08-29T05:47:08.055Z,70.97
2023-08-29T05:49:35.320Z,70.71
2023-08-29T05:52:01.905Z,70.79
2023-08-29T05:54:29.519Z,70.83
2023-08-29T05:56:56.167Z,70.61
2023-08-29T05:59:22.763Z,71.78
2023-08-29T06:01:49.877Z,71.46
2023-08-29T06:04:16.518Z,71.17
2023-08-29T06:06:44.745Z,72.21
2023-08-29T06:09:11.553Z,71.41
2023-08-29T06:11:38.531Z,70.71
2023-08-29T06:14:05.143Z,72.89
2023-08-29T06:16:31.827Z,71.63
2023-08-29T06:18:58.505Z,71.68
2023-08-29T06:21:25.141Z,70.71
2023-08-29T06:23:51.830Z,70.85
2023-08-29T06:26:18.413Z,71.58
2023-08-29T06:28:45.182Z,72.08
2023-08-29T06:31:11.821Z,71.83
2023-08-29T06:33:38.789Z,71.79
2023-08-29T06:36:05.959Z,72.59
2023-08-29T06:38:34.708Z,71.77
2023-08-29T06:41:02.319Z,70.72
2023-08-29T06:43:28.893Z,70.79
2023-08-29T06:45:55.549Z,70.88
2023-08-29T06:48:22.154Z,70.69
2023-08-29T06:50:48.778Z,71.36
2023-08-29T06:53:15.409Z,71.44
2023-08-29T06:55:41.995Z,70.98
2023-08-29T06:58:10.732Z,70.90
2023-08-29T07:00:37.506Z,70.61
2023-08-29T07:03:05.600Z,70.57
2023-08-29T07:05:32.463Z,70.19
2023-08-29T07:08:00.795Z,71.15
2023-08-29T07:10:27.564Z,71.44
2023-08-29T07:12:54.163Z,70.77
2023-08-29T07:15:20.767Z,70.74
2023-08-29T07:17:47.365Z,70.54
2023-08-29T07:20:14.683Z,70.48
2023-08-29T07:22:44.743Z,70.42
2023-08-29T07:25:12.326Z,70.45
2023-08-29T07:27:38.952Z,70.51
2023-08-29T07:30:05.979Z,70.29
2023-08-29T07:32:32.647Z,70.45
2023-08-29T07:34:59.689Z,70.69
2023-08-29T07:37:26.330Z,70.24
2023-08-29T07:39:52.888Z,70.30
2023-08-29T07:42:19.433Z,70.27
2023-08-29T07:44:46.125Z,70.34
2023-08-29T07:47:15.512Z,70.46
2023-08-29T07:49:43.001Z,70.22
2023-08-29T07:52:09.810Z,70.47
2023-08-29T07:54:36.670Z,70.71
2023-08-29T07:57:03.498Z,70.64
2023-08-29T07:59:30.154Z,70.59
2023-08-29T08:01:57.266Z,70.43
2023-08-29T08:04:24.503Z,70.46
2023-08-29T08:06:54.276Z,70.77
2023-08-29T08:09:20.950Z,70.82
2023-08-29T08:11:47.753Z,70.69
2023-08-29T08:14:14.473Z,70.65
2023-08-29T08:16:41.327Z,70.81
2023-08-29T08:19:08.768Z,70.83
2023-08-29T08:21:35.585Z,70.87
2023-08-29T08:24:02.538Z,70.69
2023-08-29T08:26:29.252Z,70.49
2023-08-29T08:28:56.159Z,70.46
2023-08-29T08:31:23.042Z,70.70
2023-08-29T08:33:49.706Z,70.66
2023-08-29T08:36:16.344Z,70.96
2023-08-29T08:38:42.925Z,70.70
2023-08-29T08:41:13.741Z,70.86
2023-08-29T08:43:42.448Z,70.96
2023-08-29T08:46:09.696Z,70.86
2023-08-29T08:48:37.607Z,71.18
2023-08-29T08:51:05.383Z,71.01
2023-08-29T08:53:32.152Z,71.20
2023-08-29T08:55:58.789Z,70.86
2023-08-29T08:58:25.478Z,70.85
2023-08-29T09:00:52.907Z,71.14
2023-08-29T09:03:21.227Z,70.93
2023-08-29T09:05:48.054Z,71.26
2023-08-29T09:08:14.857Z,71.12
2023-08-29T09:10:41.536Z,70.89
2023-08-29T09:13:14.891Z,70.79
2023-08-29T09:15:41.637Z,70.77
2023-08-29T09:18:09.908Z,70.93
2023-08-29T09:20:36.711Z,70.95
2023-08-29T09:23:03.312Z,71.21
2023-08-29T09:25:29.932Z,70.93
2023-08-29T09:27:56.782Z,70.96
2023-08-29T09:30:24.232Z,70.99
2023-08-29T09:32:54.143Z,70.39
2023-08-29T09:35:23.308Z,70.41
2023-08-29T09:37:54.334Z,70.48
2023-08-29T09:40:38.265Z,70.62
2023-08-29T09:43:06.454Z,70.67
2023-08-29T09:45:34.105Z,70.44
2023-08-29T09:48:04.839Z,70.53
2023-08-29T09:50:32.155Z,70.32
2023-08-29T09:52:59.279Z,70.10
2023-08-29T09:55:27.234Z,70.05
2023-08-29T09:57:54.431Z,70.00
2023-08-29T10:00:21.914Z,70.26
2023-08-29T10:02:49.434Z,70.07
2023-08-29T10:05:17.214Z,70.38
2023-08-29T10:07:47.058Z,70.07
2023-08-29T10:10:13.939Z,69.96
2023-08-29T10:12:40.856Z,69.71
2023-08-29T10:15:09.355Z,69.85
2023-08-29T10:17:36.839Z,70.18
2023-08-29T10:20:11.461Z,69.88
2023-08-29T10:22:38.763Z,69.52
2023-08-29T10:25:05.674Z,69.67
2023-08-29T10:27:32.932Z,69.56
2023-08-29T10:30:00.031Z,69.82
2023-08-29T10:32:28.100Z,69.54
2023-08-29T10:34:54.848Z,69.59
2023-08-29T10:37:22.303Z,69.29
2023-08-29T10:39:52.201Z,68.97
2023-08-29T10:42:19.158Z,69.42
2023-08-29T10:44:47.824Z,68.87
2023-08-29T10:47:24.910Z,69.08
2023-08-29T10:50:06.842Z,68.94
2023-08-29T10:52:37.735Z,68.57
2023-08-29T10:55:07.901Z,68.80
2023-08-29T10:57:34.520Z,68.64
2023-08-29T11:00:01.306Z,68.45
2023-08-29T11:02:28.905Z,68.27
2023-08-29T11:05:04.919Z,68.37
2023-08-29T11:07:32.610Z,68.47
2023-08-29T11:10:15.743Z,68.67
2023-08-29T11:13:01.290Z,68.70
2023-08-29T11:15:46.729Z,69.08
2023-08-29T11:18:25.455Z,68.88
2023-08-29T11:20:52.927Z,68.69
2023-08-29T11:23:20.439Z,68.43
2023-08-29T11:25:53.545Z,68.64
2023-08-29T11:28:20.152Z,68.51
2023-08-29T11:30:47.150Z,68.21
2023-08-29T11:33:14.091Z,68.25
2023-08-29T11:35:40.719Z,68.35
2023-08-29T11:38:07.739Z,68.46
2023-08-29T11:40:50.304Z,68.57
2023-08-29T11:43:45.261Z,68.73
2023-08-29T11:46:09.377Z,68.98
2023-08-29T11:48:36.201Z,69.22
2023-08-29T11:51:08.763Z,69.10
2023-08-29T11:53:37.562Z,69.47
2023-08-29T11:56:05.245Z,70.13
2023-08-29T11:58:33.080Z,70.81
2023-08-29T12:01:02.084Z,70.98
2023-08-29T12:03:28.881Z,70.89
2023-08-29T12:05:59.166Z,70.03
2023-08-29T12:08:39.510Z,71.66
2023-08-29T12:11:07.779Z,70.23
2023-08-29T12:13:35.872Z,69.98
2023-08-29T12:16:03.703Z,70.69
2023-08-29T12:18:30.544Z,71.93
2023-08-29T12:21:13.132Z,73.39
2023-08-29T12:23:39.731Z,74.00
2023-08-29T12:26:06.433Z,73.07
2023-08-29T12:28:33.141Z,72.01
2023-08-29T12:30:59.843Z,72.39
2023-08-29T12:33:26.499Z,75.67
2023-08-29T12:35:53.150Z,72.53
2023-08-29T12:38:19.768Z,74.45
2023-08-29T12:40:46.587Z,74.50
2023-08-29T12:43:14.225Z,76.47
2023-08-29T12:45:52.748Z,78.99
2023-08-29T12:48:25.467Z,74.49
2023-08-29T12:50:52.131Z,76.20
2023-08-29T12:53:18.729Z,80.61
2023-08-29T12:55:45.465Z,86.04
2023-08-29T12:58:12.099Z,83.82
2023-08-29T13:00:39.427Z,78.43
2023-08-29T13:03:06.872Z,77.62
2023-08-29T13:05:33.669Z,79.83
2023-08-29T13:08:00.350Z,81.73
2023-08-29T13:10:27.064Z,79.32
2023-08-29T13:12:53.763Z,77.83
2023-08-29T13:15:20.383Z,81.56
2023-08-29T13:17:48.252Z,86.69
2023-08-29T13:20:14.954Z,87.32
2023-08-29T13:22:41.907Z,88.44
2023-08-29T13:25:08.798Z,89.78
2023-08-29T13:27:36.097Z,89.10
2023-08-29T13:30:02.912Z,84.51
2023-08-29T13:32:31.978Z,86.51
2023-08-29T13:34:58.752Z,82.46
2023-08-29T13:37:25.758Z,81.61
2023-08-29T13:39:59.145Z,81.51
2023-08-29T13:42:25.938Z,86.37
2023-08-29T13:44:56.884Z,84.12
2023-08-29T13:47:23.677Z,83.83
2023-08-29T13:49:50.451Z,86.19
2023-08-29T13:52:17.001Z,83.39
2023-08-29T13:54:43.603Z,83.25
2023-08-29T13:57:10.223Z,84.93
2023-08-29T13:59:36.809Z,84.22
2023-08-29T14:02:03.727Z,85.69
2023-08-29T14:04:30.340Z,85.27
2023-08-29T14:06:57.867Z,82.57
2023-08-29T14:09:24.528Z,82.68
2023-08-29T14:11:51.268Z,82.40
2023-08-29T14:14:18.393Z,82.08
2023-08-29T14:16:45.011Z,82.02
2023-08-29T14:19:11.717Z,82.31
2023-08-29T14:21:41.667Z,81.82
2023-08-29T14:24:08.902Z,82.41
2023-08-29T14:26:35.537Z,85.47
2023-08-29T14:29:02.279Z,83.24
2023-08-29T14:31:28.937Z,82.44
2023-08-29T14:33:55.623Z,82.69
2023-08-29T14:36:22.306Z,85.97
2023-08-29T14:38:48.986Z,85.34
2023-08-29T14:41:15.736Z,84.92
2023-08-29T14:43:42.718Z,84.79
2023-08-29T14:46:09.758Z,85.15
2023-08-29T14:48:38.033Z,87.98
2023-08-29T14:51:08.133Z,89.80
2023-08-29T14:53:35.429Z,89.58
2023-08-29T14:56:03.783Z,84.38
2023-08-29T14:58:32.716Z,86.02
2023-08-29T15:00:59.447Z,88.42
2023-08-29T15:03:26.286Z,85.46
2023-08-29T15:05:59.644Z,86.38
2023-08-29T15:08:27.267Z,85.34
2023-08-29T15:10:54.542Z,83.28
2023-08-29T15:13:21.846Z,86.01
2023-08-29T15:15:48.722Z,83.71
2023-08-29T15:18:15.935Z,85.18
2023-08-29T15:20:43.564Z,83.97
2023-08-29T15:23:11.005Z,86.79
2023-08-29T15:25:37.755Z,85.10
2023-08-29T15:28:04.854Z,87.83
2023-08-29T15:30:32.349Z,89.06
2023-08-29T15:32:59.424Z,86.13
2023-08-29T15:35:26.061Z,85.45
2023-08-29T15:37:52.702Z,89.13
2023-08-29T15:40:19.427Z,88.17
2023-08-29T15:42:46.206Z,87.05
2023-08-29T15:45:12.796Z,86.96
2023-08-29T15:47:39.616Z,89.68
2023-08-29T15:50:06.630Z,89.11
2023-08-29T15:52:33.255Z,85.57
2023-08-29T15:54:59.852Z,89.61
2023-08-29T15:57:26.737Z,90.40
2023-08-29T15:59:53.401Z,88.52
2023-08-29T16:02:20.007Z,89.84
2023-08-29T16:04:46.854Z,88.62
2023-08-29T16:07:13.516Z,91.89
2023-08-29T16:09:40.094Z,91.56
2023-08-29T16:12:06.981Z,92.83
2023-08-29T16:14:33.682Z,89.72
2023-08-29T16:17:02.667Z,90.96
2023-08-29T16:19:29.613Z,89.01
2023-08-29T16:21:56.255Z,91.28
2023-08-29T16:24:22.910Z,89.33
2023-08-29T16:26:49.586Z,87.53
2023-08-29T16:29:17.249Z,87.80
2023-08-29T16:31:44.249Z,86.44
2023-08-29T16:34:10.892Z,85.63
2023-08-29T16:36:37.618Z,89.52
2023-08-29T16:39:06.187Z,92.14
2023-08-29T16:41:32.895Z,92.51
2023-08-29T16:43:59.766Z,92.27
2023-08-29T16:46:26.940Z,89.83
2023-08-29T16:48:53.630Z,88.87
2023-08-29T16:51:20.282Z,88.32
2023-08-29T16:53:46.898Z,95.08
2023-08-29T16:56:13.504Z,90.22
2023-08-29T16:58:40.086Z,89.80
2023-08-29T17:01:07.001Z,89.98
2023-08-29T17:03:33.706Z,90.09
2023-08-29T17:06:00.400Z,88.81
2023-08-29T17:08:27.013Z,88.17
2023-08-29T17:10:53.672Z,87.86
2023-08-29T17:13:20.481Z,89.38
2023-08-29T17:15:47.097Z,90.62
2023-08-29T17:18:13.878Z,88.10
2023-08-29T17:20:40.496Z,91.76
2023-08-29T17:23:07.126Z,91.81
2023-08-29T17:25:33.911Z,98.74
2023-08-29T17:28:00.556Z,92.55
2023-08-29T17:30:27.200Z,89.97
2023-08-29T17:32:53.843Z,89.73
2023-08-29T17:35:20.463Z,90.54
2023-08-29T17:37:47.138Z,90.67
2023-08-29T17:40:14.202Z,90.25
2023-08-29T17:42:41.068Z,90.40
2023-08-29T17:45:09.501Z,90.65
2023-08-29T17:47:36.720Z,90.75
2023-08-29T17:50:04.505Z,90.53
2023-08-29T17:52:31.432Z,89.43
2023-08-29T17:54:58.367Z,97.21
2023-08-29T17:57:25.188Z,94.91
2023-08-29T18:00:00.637Z,90.97
2023-08-29T18:02:27.690Z,90.68
2023-08-29T18:04:54.593Z,91.40
2023-08-29T18:07:21.713Z,90.84
2023-08-29T18:10:06.199Z,90.27
2023-08-29T18:12:33.476Z,90.58
2023-08-29T18:15:00.500Z,90.45
2023-08-29T18:17:27.256Z,90.66
2023-08-29T18:19:54.292Z,91.09
2023-08-29T18:22:21.112Z,91.18
2023-08-29T18:24:47.762Z,91.19
2023-08-29T18:27:14.449Z,91.31
2023-08-29T18:29:41.603Z,91.25
2023-08-29T18:32:09.335Z,91.33
2023-08-29T18:34:36.769Z,93.93
2023-08-29T18:37:04.662Z,92.12
2023-08-29T18:39:31.391Z,91.67
2023-08-29T18:41:58.135Z,91.88
2023-08-29T18:44:24.812Z,91.91
2023-08-29T18:46:52.073Z,91.79
2023-08-29T18:49:18.856Z,91.98
2023-08-29T18:51:45.467Z,92.04
2023-08-29T18:54:12.082Z,92.26
2023-08-29T18:56:38.740Z,92.38
2023-08-29T18:59:05.374Z,92.00
2023-08-29T19:01:31.991Z,92.37
2023-08-29T19:03:58.704Z,92.26
2023-08-29T19:06:25.361Z,92.10
2023-08-29T19:08:52.832Z,92.32
2023-08-29T19:11:19.497Z,93.10
2023-08-29T19:13:46.225Z,93.29
2023-08-29T19:16:12.991Z,92.57
2023-08-29T19:18:40.449Z,92.94
2023-08-29T19:21:07.433Z,92.93
2023-08-29T19:23:34.090Z,93.05
2023-08-29T19:26:00.793Z,93.11
2023-08-29T19:28:27.479Z,92.82
2023-08-29T19:30:57.206Z,92.65
2023-08-29T19:33:23.956Z,92.77
2023-08-29T19:35:50.783Z,93.20
2023-08-29T19:38:18.099Z,93.42
2023-08-29T19:40:44.782Z,92.56
2023-08-29T19:43:11.474Z,92.85
2023-08-29T19:45:38.125Z,93.14
2023-08-29T19:48:05.509Z,93.22
2023-08-29T19:50:32.385Z,93.49
2023-08-29T19:52:59.185Z,93.25
2023-08-29T19:55:29.768Z,93.62
2023-08-29T19:57:56.476Z,93.31
2023-08-29T20:00:23.056Z,93.50
2023-08-29T20:02:49.729Z,93.52
2023-08-29T20:05:19.676Z,93.80
2023-08-29T20:07:47.161Z,93.12
2023-08-29T20:10:13.822Z,93.44
2023-08-29T20:12:41.704Z,93.23
2023-08-29T20:15:08.821Z,93.38
2023-08-29T20:17:35.414Z,93.24
2023-08-29T20:20:02.237Z,92.98
2023-08-29T20:22:29.953Z,93.15
2023-08-29T20:24:56.606Z,93.10
2023-08-29T20:27:23.231Z,93.54
2023-08-29T20:29:50.467Z,93.58
2023-08-29T20:32:17.411Z,93.63
2023-08-29T20:34:44.056Z,93.43
2023-08-29T20:37:10.799Z,93.67
2023-08-29T20:39:38.806Z,93.41
2023-08-29T20:42:05.759Z,94.06
2023-08-29T20:44:35.244Z,94.27
2023-08-29T20:47:02.028Z,93.54
2023-08-29T20:49:30.432Z,94.01
2023-08-29T20:51:57.022Z,93.56
2023-08-29T20:54:23.654Z,93.81
2023-08-29T20:56:50.465Z,94.12
2023-08-29T20:59:19.181Z,93.93
2023-08-29T21:01:49.221Z,93.64
2023-08-29T21:04:15.961Z,93.89
2023-08-29T21:06:42.607Z,93.64
2023-08-29T21:09:11.730Z,93.87
2023-08-29T21:11:38.655Z,93.68
2023-08-29T21:14:05.313Z,93.75
2023-08-29T21:16:32.432Z,93.86
2023-08-29T21:18:59.313Z,94.23
2023-08-29T21:21:25.928Z,93.93
2023-08-29T21:23:52.632Z,94.14
2023-08-29T21:26:19.286Z,94.04
2023-08-29T21:28:45.966Z,94.66
2023-08-29T21:31:12.589Z,94.84
2023-08-29T21:33:39.218Z,94.53
2023-08-29T21:36:05.982Z,95.13
2023-08-29T21:38:34.282Z,98.35
2023-08-29T21:41:06.276Z,99.14
2023-08-29T21:43:33.018Z,97.50
2023-08-29T21:46:00.573Z,98.69
2023-08-29T21:48:30.817Z,98.10
2023-08-29T21:53:44.549Z,98.78
2023-08-29T21:56:12.007Z,97.85
2023-08-29T21:58:38.675Z,97.20
2023-08-29T22:01:05.467Z,99.59
2023-08-29T22:03:32.115Z,97.72
2023-08-29T22:05:58.766Z,100.00
2023-08-29T22:08:27.476Z,100.00
2023-08-29T22:10:54.359Z,97.99
2023-08-29T22:13:21.069Z,96.64
2023-08-29T22:15:49.845Z,96.34
2023-08-29T22:18:16.530Z,96.59
2023-08-29T22:20:43.150Z,96.33
2023-08-29T22:23:09.743Z,97.16
2023-08-29T22:25:36.507Z,97.02
2023-08-29T22:28:03.217Z,97.29
2023-08-29T22:30:29.856Z,97.43
2023-08-29T22:32:56.913Z,97.78
2023-08-29T22:35:23.585Z,96.75
2023-08-29T22:37:50.202Z,96.77
2023-08-29T22:40:17.724Z,96.75
2023-08-29T22:42:45.909Z,96.35
2023-08-29T22:45:13.473Z,96.59
2023-08-29T22:47:40.113Z,96.67
2023-08-29T22:50:07.535Z,97.27
2023-08-29T22:52:34.144Z,97.77
2023-08-29T22:55:00.803Z,97.90
2023-08-29T22:57:27.382Z,99.78
2023-08-29T22:59:53.958Z,100.00
2023-08-29T23:02:20.698Z,99.02
2023-08-29T23:04:47.290Z,97.74
2023-08-29T23:07:13.940Z,98.04
2023-08-29T23:09:43.742Z,97.29
2023-08-29T23:12:10.393Z,98.48
2023-08-29T23:14:36.993Z,97.09
2023-08-29T23:17:06.014Z,97.44
2023-08-29T23:19:32.630Z,98.68
2023-08-29T23:21:59.361Z,99.14
2023-08-29T23:24:25.969Z,98.98
2023-08-29T23:26:55.258Z,98.09
2023-08-29T23:29:21.859Z,97.88
2023-08-29T23:31:48.500Z,98.06
2023-08-29T23:34:15.147Z,100.00
2023-08-29T23:36:41.748Z,99.89
2023-08-29T23:39:08.559Z,100.00
2023-08-29T23:41:35.393Z,100.00
2023-08-29T23:44:02.611Z,98.80
2023-08-29T23:46:29.345Z,97.86
2023-08-29T23:48:56.037Z,97.83
2023-08-29T23:51:23.550Z,97.96
2023-08-29T23:53:51.156Z,98.93
2023-08-29T23:56:18.264Z,98.51
2023-08-29T23:58:45.314Z,97.41
